Terminal Aerodrome Forecast
Issued by NWS

Home | Current Version | Previous Version | Text Only | Print | Product List | Glossary On
Versions: 1 2 3 4 5 6 7 8 9 10 11 12 13 14 15 16 17 18 19 20 21 22 23 24 25
983
FTUS41 KOKX 280541
TAFHPN
TAF
KHPN 280541Z 2806/2906 12004KT 1/2SM FG VV002
     FM281000 VRB02KT 1/4SM -DZ FG OVC001
     FM281200 08003KT 3/4SM -RA OVC003
     FM281500 09004KT 1SM BR OVC004
     FM281800 10004KT 4SM BR OVC004
     FM290000 03003KT 1/4SM -RA FG OVC007
     FM290200 01003KT 1 1/2SM -DZ BR OVC003
     FM290400 36003KT 2SM BR OVC008
      AMD NOT SKED=

USA.gov is the U.S. government's official web portal to all federal, state and local government web resources and services.